Terminal Aerodrome Forecast
Issued by NWS Amarillo, TX

Home | Current Version | Previous Version | Text Only | Print | Product List | Glossary On
Versions: 1 2 3 4 5 6 7 8 9 10 11 12 13 14
418
FTUS44 KAMA 230528
TAFGUY
TAF
KGUY 230528Z 2306/2406 07008KT P6SM SCT035
     FM230800 09007KT P6SM SCT010 OVC025
     FM231500 14011KT P6SM SCT025 BKN100
     FM231800 17010KT P6SM SCT025=

USA.gov is the U.S. government's official web portal to all federal, state and local government web resources and services.